Woburn, MA

11:44 AM EDT on June 30, 2015 (GMT -0400)
woburn | | Change Station
CLOSE
Current Station
Personal Weather Station
Location: Woburn, MA
Elevation: 115 ft
Nearby Weather Stations

Elev 115 ft 42.48 °N, 71.15 °W | Updated 59 seconds ago

Clear
Clear
79.0 °F
Feels Like 80 °F
N
0.0
Wind Variable Wind from West
Gusts 0.0 mph

Today
High -- | Low -- °F
--% Chance of Precip.
Yesterday
High -- | Low -- °F
Precip. -- in
5:10 AM 8:25 PM
Waxing Gibbous, 97% visible
Pressure 30.02 in
Visibility 10.0 miles
Clouds Few 3500 ft
Heat Index 80 °F
Dew Point 60 °F
Humidity 53%
Rainfall in
Snow Depth Not available.
UV 9 out of 12
Pollen 4.20 out of 12
Air Quality Not available.
Flu Activity Local Activity
METAR KBED 301456Z 00000KT 10SM FEW035 23/13 A2998 RMK AO2 SLP164 T02330128 58005

More Conditions Fewer Conditions

Pressure 30.02 in
Visibility 10.0 miles
Clouds Few 3500 ft
Heat Index 80 °F
Dew Point 60 °F
Humidity 53%
Rainfall in
Snow Depth Not available.
UV 9 out of 12
Pollen 4.20 out of 12
Air Quality Not available.
Flu Activity Local Activity
METAR KBED 301456Z 00000KT 10SM FEW035 23/13 A2998 RMK AO2 SLP164 T02330128 58005

More Conditions Fewer Conditions

10-Day Weather Forecast

×

Almanac

Astronomy

Jun. 30, 2015 Rise Set
Actual Time
Civil Twilight
Nautical Twilight
Astronomical Twilight
Moon
Length of Visible Light
Length of Day
Tomorrow will be .
, % of the Moon is Illuminated

Today's Extremes

State Highs State Lows

Community

WunderPhotos

Upload Photos

1,834,027 photos uploaded!

WunderBlogs® & News

Nearby

Air Quality

  Air Quality AQ Index Pollutant
Not available.

Snow Depth

Station Depth Elevation

Earthquake Activity

City Distance Mag. Time & Date
Minimum magnitude displayed is 2.5.

Coastal Water Temperatures

Place Temperature

Stations

Nearby Weather Stations

Station Location Temp. Windchill Dew Point Humidity Wind Precip. Elev Updated Type